Twin Falls, Idaho
Current Conditions -  °F | °C
As of 5:53 PM on Wednesday 22 Oct 2014 (Local Time) from KTWF Reporting Station
Overcast Overcast  
Wind Chill: 59°   Ceiling: 10000
Heat Index: 59°   Visibility: 10mi
Dew Point: 34°   Wind: 5mph
Humidity: 39%   Direction: 60°ENE
Pressure: 30.11"   Gusts: NA
Location:  42.56°N, 114.46°W
Report Text: KTWF 222353Z 06004KT 10SM OVC100 15/01 A3011 RMK AO2 SLP174 T01500011 10172 20128 56006
Loading
Personal Weather Stations






























Interactive Weather Map
Tropical Storm Tracking
New forecast layout! Learn more

10-Day Weather Forecast

Advertisements
Track Severe Weather on mobile